FV Damien Florent — FNSD — position and weather

sailwx.info

Track history (hours):
 
Tides and Currents Weather Stations Pressure Air Temp Water Temp Dewpoint Dewpoint Depression Visibility Wind Speed Wind Dir Waves Ship Positions

FV Damien Florent

Last reported at 2018-Jan-04 16:52 UTC. Time now 2018-Jan-22 00:42 UTC.
Position N 48°43' W 004°60'.
Warning: this ship's position is 17 days out of date.

Length 20 m.

Type: Fishing. MMSI: 226216000.

Date/timePositionNaut miles runAvg speedWind from/ knotsBaromVisibWave heightAir tempDewpointWater temp
2018-Jan-04 16:52N 48°43' W 004°60'3 8.5
2018-Jan-04 16:30N 48°40' W 004°58'4 8.6
2018-Jan-04 16:00N 48°37' W 004°55'5 9.2
2018-Jan-04 15:30N 48°32' W 004°53'5 9.7
2018-Jan-04 15:00N 48°28' W 004°51'510.7
2018-Jan-04 14:30N 48°22' W 004°49'611.2
2018-Jan-04 14:00N 48°17' W 004°46'5 9.4
2018-Jan-04 13:31N 48°13' W 004°45'5 9.3
2018-Jan-04 13:00N 48°08' W 004°45'611.1
2018-Jan-04 12:30N 48°02' W 004°46'610.7
2018-Jan-04 11:58N 47°58' W 004°41'9 8.8
2018-Jan-04 10:58N 47°52' W 004°31'  
Track history (hours):
 
Tides and Currents Weather Stations Pressure Air Temp Water Temp Dewpoint Dewpoint Depression Visibility Wind Speed Wind Dir Waves Ship Positions

FV Damien Florent

Last reported at 2018-Jan-04 16:52 UTC. Time now 2018-Jan-22 00:42 UTC.
Position N 48°43' W 004°60'.
Warning: this ship's position is 17 days out of date.

Length 20 m.

Type: Fishing. MMSI: 226216000.

Date/timePositionNaut miles runAvg speedWind from/ knotsBaromVisibWave heightAir tempDewpointWater temp
2018-Jan-04 16:52N 48°43' W 004°60'3 8.5
2018-Jan-04 16:30N 48°40' W 004°58'4 8.6
2018-Jan-04 16:00N 48°37' W 004°55'5 9.2
2018-Jan-04 15:30N 48°32' W 004°53'5 9.7
2018-Jan-04 15:00N 48°28' W 004°51'510.7
2018-Jan-04 14:30N 48°22' W 004°49'611.2
2018-Jan-04 14:00N 48°17' W 004°46'5 9.4
2018-Jan-04 13:31N 48°13' W 004°45'5 9.3
2018-Jan-04 13:00N 48°08' W 004°45'611.1
2018-Jan-04 12:30N 48°02' W 004°46'610.7
2018-Jan-04 11:58N 47°58' W 004°41'9 8.8
2018-Jan-04 10:58N 47°52' W 004°31'  

Dump ship's entire track history